sensor_id;sensor_type;location;lat;lon;timestamp;temperature;humidity
21950;DHT22;11139;51.284;7.226;2024-01-11T00:02:00;-0.90;99.90
21950;DHT22;11139;51.284;7.226;2024-01-11T00:04:26;-1.00;99.90
21950;DHT22;11139;51.284;7.226;2024-01-11T00:06:51;-1.00;99.90
21950;DHT22;11139;51.284;7.226;2024-01-11T00:09:17;-1.00;99.90
21950;DHT22;11139;51.284;7.226;2024-01-11T00:11:42;-1.00;99.90
21950;DHT22;11139;51.284;7.226;2024-01-11T00:14:08;-1.00;99.90
21950;DHT22;11139;51.284;7.226;2024-01-11T00:16:33;-0.90;99.90
21950;DHT22;11139;51.284;7.226;2024-01-11T00:18:59;-1.00;99.90
21950;DHT22;11139;51.284;7.226;2024-01-11T00:21:25;-1.00;99.90
21950;DHT22;11139;51.284;7.226;2024-01-11T00:23:50;-1.00;99.90
21950;DHT22;11139;51.284;7.226;2024-01-11T00:26:16;-1.00;99.90
21950;DHT22;11139;51.284;7.226;2024-01-11T00:28:41;-1.00;99.90
21950;DHT22;11139;51.284;7.226;2024-01-11T00:31:07;-1.00;99.90
21950;DHT22;11139;51.284;7.226;2024-01-11T00:33:32;-1.00;99.90
21950;DHT22;11139;51.284;7.226;2024-01-11T00:35:58;-1.00;99.90
21950;DHT22;11139;51.284;7.226;2024-01-11T00:38:24;-1.00;99.90
21950;DHT22;11139;51.284;7.226;2024-01-11T00:40:49;-1.00;99.90
21950;DHT22;11139;51.284;7.226;2024-01-11T00:43:15;-1.00;99.90
21950;DHT22;11139;51.284;7.226;2024-01-11T00:45:40;-1.00;99.90
21950;DHT22;11139;51.284;7.226;2024-01-11T00:48:06;-1.10;99.90
21950;DHT22;11139;51.284;7.226;2024-01-11T00:50:31;-1.00;99.90
21950;DHT22;11139;51.284;7.226;2024-01-11T00:52:57;-1.00;99.90
21950;DHT22;11139;51.284;7.226;2024-01-11T00:55:22;-1.00;99.90
21950;DHT22;11139;51.284;7.226;2024-01-11T00:57:49;-1.00;99.90
21950;DHT22;11139;51.284;7.226;2024-01-11T01:00:15;-1.00;99.90
21950;DHT22;11139;51.284;7.226;2024-01-11T01:02:41;-1.00;99.90
21950;DHT22;11139;51.284;7.226;2024-01-11T01:05:07;-1.10;99.90
21950;DHT22;11139;51.284;7.226;2024-01-11T01:07:33;-1.10;99.90
21950;DHT22;11139;51.284;7.226;2024-01-11T01:09:58;-1.00;99.90
21950;DHT22;11139;51.284;7.226;2024-01-11T01:12:24;-1.00;99.90
21950;DHT22;11139;51.284;7.226;2024-01-11T01:14:52;-1.10;99.90
21950;DHT22;11139;51.284;7.226;2024-01-11T01:17:18;-1.10;99.90
21950;DHT22;11139;51.284;7.226;2024-01-11T01:19:43;-1.10;99.90
21950;DHT22;11139;51.284;7.226;2024-01-11T01:22:09;-1.10;99.90
21950;DHT22;11139;51.284;7.226;2024-01-11T01:24:34;-1.10;99.90
21950;DHT22;11139;51.284;7.226;2024-01-11T01:27:00;-1.10;99.90
21950;DHT22;11139;51.284;7.226;2024-01-11T01:29:26;-1.10;99.90
21950;DHT22;11139;51.284;7.226;2024-01-11T01:31:51;-1.10;99.90
21950;DHT22;11139;51.284;7.226;2024-01-11T01:34:17;-1.10;99.90
21950;DHT22;11139;51.284;7.226;2024-01-11T01:36:42;-1.10;99.90
21950;DHT22;11139;51.284;7.226;2024-01-11T01:39:08;-1.10;99.90
21950;DHT22;11139;51.284;7.226;2024-01-11T01:41:34;-1.10;99.90
21950;DHT22;11139;51.284;7.226;2024-01-11T01:43:59;-1.10;99.90
21950;DHT22;11139;51.284;7.226;2024-01-11T01:46:25;-1.10;99.90
21950;DHT22;11139;51.284;7.226;2024-01-11T01:48:55;-1.10;99.90
21950;DHT22;11139;51.284;7.226;2024-01-11T01:51:22;-1.10;99.90
21950;DHT22;11139;51.284;7.226;2024-01-11T01:53:48;-1.10;99.90
21950;DHT22;11139;51.284;7.226;2024-01-11T01:56:14;-1.10;99.90
21950;DHT22;11139;51.284;7.226;2024-01-11T01:58:40;-1.20;99.90
21950;DHT22;11139;51.284;7.226;2024-01-11T02:01:06;-1.10;99.90
21950;DHT22;11139;51.284;7.226;2024-01-11T02:03:32;-1.10;99.90
21950;DHT22;11139;51.284;7.226;2024-01-11T02:06:00;-1.20;99.90
21950;DHT22;11139;51.284;7.226;2024-01-11T02:08:26;-1.20;99.90
21950;DHT22;11139;51.284;7.226;2024-01-11T02:10:52;-1.20;99.90
21950;DHT22;11139;51.284;7.226;2024-01-11T02:13:18;-1.20;99.90
21950;DHT22;11139;51.284;7.226;2024-01-11T02:15:44;-1.20;99.90
21950;DHT22;11139;51.284;7.226;2024-01-11T02:18:10;-1.20;99.90
21950;DHT22;11139;51.284;7.226;2024-01-11T02:20:35;-1.20;99.90
21950;DHT22;11139;51.284;7.226;2024-01-11T02:23:03;-1.20;99.90
21950;DHT22;11139;51.284;7.226;2024-01-11T02:25:30;-1.20;99.90
21950;DHT22;11139;51.284;7.226;2024-01-11T02:27:56;-1.20;99.90
21950;DHT22;11139;51.284;7.226;2024-01-11T02:30:21;-1.20;99.90
21950;DHT22;11139;51.284;7.226;2024-01-11T02:32:47;-1.20;99.90
21950;DHT22;11139;51.284;7.226;2024-01-11T02:35:14;-1.20;99.90
21950;DHT22;11139;51.284;7.226;2024-01-11T02:37:40;-1.20;99.90
21950;DHT22;11139;51.284;7.226;2024-01-11T02:40:08;-1.20;99.90
21950;DHT22;11139;51.284;7.226;2024-01-11T02:42:34;-1.20;99.90
21950;DHT22;11139;51.284;7.226;2024-01-11T02:45:00;-1.20;99.90
21950;DHT22;11139;51.284;7.226;2024-01-11T02:47:26;-1.20;99.90
21950;DHT22;11139;51.284;7.226;2024-01-11T02:49:51;-1.20;99.90
21950;DHT22;11139;51.284;7.226;2024-01-11T02:52:17;-1.20;99.90
21950;DHT22;11139;51.284;7.226;2024-01-11T02:54:42;-1.20;99.90
21950;DHT22;11139;51.284;7.226;2024-01-11T02:57:08;-1.20;99.90
21950;DHT22;11139;51.284;7.226;2024-01-11T02:59:33;-1.20;99.90
21950;DHT22;11139;51.284;7.226;2024-01-11T03:01:59;-1.20;99.90
21950;DHT22;11139;51.284;7.226;2024-01-11T03:04:24;-1.30;99.90
21950;DHT22;11139;51.284;7.226;2024-01-11T03:06:50;-1.30;99.90
21950;DHT22;11139;51.284;7.226;2024-01-11T03:09:15;-1.30;99.90
21950;DHT22;11139;51.284;7.226;2024-01-11T03:11:40;-1.30;99.90
21950;DHT22;11139;51.284;7.226;2024-01-11T03:14:06;-1.30;99.90
21950;DHT22;11139;51.284;7.226;2024-01-11T03:16:32;-1.30;99.90
21950;DHT22;11139;51.284;7.226;2024-01-11T03:18:57;-1.30;99.90
21950;DHT22;11139;51.284;7.226;2024-01-11T03:21:23;-1.30;99.90
21950;DHT22;11139;51.284;7.226;2024-01-11T03:23:48;-1.30;99.90
21950;DHT22;11139;51.284;7.226;2024-01-11T03:26:15;-1.30;99.90
21950;DHT22;11139;51.284;7.226;2024-01-11T03:28:41;-1.30;99.90
21950;DHT22;11139;51.284;7.226;2024-01-11T03:31:07;-1.30;99.90
21950;DHT22;11139;51.284;7.226;2024-01-11T03:33:33;-1.30;99.90
21950;DHT22;11139;51.284;7.226;2024-01-11T03:35:58;-1.30;99.90
21950;DHT22;11139;51.284;7.226;2024-01-11T03:38:24;-1.30;99.90
21950;DHT22;11139;51.284;7.226;2024-01-11T03:40:49;-1.30;99.90
21950;DHT22;11139;51.284;7.226;2024-01-11T03:43:17;-1.30;99.90
21950;DHT22;11139;51.284;7.226;2024-01-11T03:45:42;-1.30;99.90
21950;DHT22;11139;51.284;7.226;2024-01-11T03:48:08;-1.30;99.90
21950;DHT22;11139;51.284;7.226;2024-01-11T03:50:33;-1.30;99.90
21950;DHT22;11139;51.284;7.226;2024-01-11T03:52:58;-1.30;99.90
21950;DHT22;11139;51.284;7.226;2024-01-11T03:55:24;-1.40;99.90
21950;DHT22;11139;51.284;7.226;2024-01-11T03:57:50;-1.40;99.90
21950;DHT22;11139;51.284;7.226;2024-01-11T04:00:16;-1.40;99.90
21950;DHT22;11139;51.284;7.226;2024-01-11T04:02:41;-1.40;99.90
21950;DHT22;11139;51.284;7.226;2024-01-11T04:05:07;-1.40;99.90
21950;DHT22;11139;51.284;7.226;2024-01-11T04:07:33;-1.40;99.90
21950;DHT22;11139;51.284;7.226;2024-01-11T04:09:58;-1.40;99.90
21950;DHT22;11139;51.284;7.226;2024-01-11T04:12:25;-1.40;99.90
21950;DHT22;11139;51.284;7.226;2024-01-11T04:14:50;-1.40;99.90
21950;DHT22;11139;51.284;7.226;2024-01-11T04:17:16;-1.40;99.90
21950;DHT22;11139;51.284;7.226;2024-01-11T04:19:41;-1.40;99.90
21950;DHT22;11139;51.284;7.226;2024-01-11T04:22:07;-1.40;99.90
21950;DHT22;11139;51.284;7.226;2024-01-11T04:24:32;-1.40;99.90
21950;DHT22;11139;51.284;7.226;2024-01-11T04:26:58;-1.40;99.90
21950;DHT22;11139;51.284;7.226;2024-01-11T04:29:23;-1.40;99.90
21950;DHT22;11139;51.284;7.226;2024-01-11T04:31:49;-1.40;99.90
21950;DHT22;11139;51.284;7.226;2024-01-11T04:34:14;-1.50;99.90
21950;DHT22;11139;51.284;7.226;2024-01-11T04:36:40;-1.40;99.90
21950;DHT22;11139;51.284;7.226;2024-01-11T04:39:05;-1.40;99.90
21950;DHT22;11139;51.284;7.226;2024-01-11T04:41:35;-1.40;99.90
21950;DHT22;11139;51.284;7.226;2024-01-11T04:44:00;-1.40;99.90
21950;DHT22;11139;51.284;7.226;2024-01-11T04:46:26;-1.40;99.90
21950;DHT22;11139;51.284;7.226;2024-01-11T04:48:51;-1.50;99.90
21950;DHT22;11139;51.284;7.226;2024-01-11T04:51:18;-1.50;99.90
21950;DHT22;11139;51.284;7.226;2024-01-11T04:53:44;-1.50;99.90
21950;DHT22;11139;51.284;7.226;2024-01-11T04:56:10;-1.50;99.90
21950;DHT22;11139;51.284;7.226;2024-01-11T04:58:36;-1.50;99.90
21950;DHT22;11139;51.284;7.226;2024-01-11T05:01:03;-1.50;99.90
21950;DHT22;11139;51.284;7.226;2024-01-11T05:03:29;-1.50;99.90
21950;DHT22;11139;51.284;7.226;2024-01-11T05:05:55;-1.50;99.90
21950;DHT22;11139;51.284;7.226;2024-01-11T05:08:21;-1.50;99.90
21950;DHT22;11139;51.284;7.226;2024-01-11T05:10:47;-1.50;99.90
21950;DHT22;11139;51.284;7.226;2024-01-11T05:13:12;-1.50;99.90
21950;DHT22;11139;51.284;7.226;2024-01-11T05:15:38;-1.50;99.90
21950;DHT22;11139;51.284;7.226;2024-01-11T05:18:03;-1.50;99.90
21950;DHT22;11139;51.284;7.226;2024-01-11T05:20:29;-1.50;99.90
21950;DHT22;11139;51.284;7.226;2024-01-11T05:22:54;-1.50;99.90
21950;DHT22;11139;51.284;7.226;2024-01-11T05:25:20;-1.50;99.90
21950;DHT22;11139;51.284;7.226;2024-01-11T05:27:45;-1.50;99.90
21950;DHT22;11139;51.284;7.226;2024-01-11T05:30:11;-1.50;99.90
21950;DHT22;11139;51.284;7.226;2024-01-11T05:32:37;-1.50;99.90
21950;DHT22;11139;51.284;7.226;2024-01-11T05:35:03;-1.50;99.90
21950;DHT22;11139;51.284;7.226;2024-01-11T05:37:28;-1.50;99.90
21950;DHT22;11139;51.284;7.226;2024-01-11T05:39:54;-1.50;99.90
21950;DHT22;11139;51.284;7.226;2024-01-11T05:42:22;-1.50;99.90
21950;DHT22;11139;51.284;7.226;2024-01-11T05:44:48;-1.50;99.90
21950;DHT22;11139;51.284;7.226;2024-01-11T05:47:15;-1.50;99.90
21950;DHT22;11139;51.284;7.226;2024-01-11T05:49:40;-1.50;99.90
21950;DHT22;11139;51.284;7.226;2024-01-11T05:52:06;-1.50;99.90
21950;DHT22;11139;51.284;7.226;2024-01-11T05:54:31;-1.50;99.90
21950;DHT22;11139;51.284;7.226;2024-01-11T05:56:57;-1.60;99.90
21950;DHT22;11139;51.284;7.226;2024-01-11T05:59:24;-1.60;99.90
21950;DHT22;11139;51.284;7.226;2024-01-11T06:01:49;-1.60;99.90
21950;DHT22;11139;51.284;7.226;2024-01-11T06:04:15;-1.50;99.90
21950;DHT22;11139;51.284;7.226;2024-01-11T06:06:41;-1.50;99.90
21950;DHT22;11139;51.284;7.226;2024-01-11T06:09:07;-1.50;99.90
21950;DHT22;11139;51.284;7.226;2024-01-11T06:11:33;-1.50;99.90
21950;DHT22;11139;51.284;7.226;2024-01-11T06:13:58;-1.60;99.90
21950;DHT22;11139;51.284;7.226;2024-01-11T06:16:24;-1.60;99.90
21950;DHT22;11139;51.284;7.226;2024-01-11T06:18:50;-1.50;99.90
21950;DHT22;11139;51.284;7.226;2024-01-11T06:21:15;-1.60;99.90
21950;DHT22;11139;51.284;7.226;2024-01-11T06:23:45;-1.60;99.90
21950;DHT22;11139;51.284;7.226;2024-01-11T06:26:11;-1.60;99.90
21950;DHT22;11139;51.284;7.226;2024-01-11T06:28:36;-1.60;99.90
21950;DHT22;11139;51.284;7.226;2024-01-11T06:31:02;-1.50;99.90
21950;DHT22;11139;51.284;7.226;2024-01-11T06:33:28;-1.60;99.90
21950;DHT22;11139;51.284;7.226;2024-01-11T06:35:54;-1.60;99.90
21950;DHT22;11139;51.284;7.226;2024-01-11T06:38:19;-1.60;99.90
21950;DHT22;11139;51.284;7.226;2024-01-11T06:40:45;-1.60;99.90
21950;DHT22;11139;51.284;7.226;2024-01-11T06:43:10;-1.60;99.90
21950;DHT22;11139;51.284;7.226;2024-01-11T06:45:36;-1.60;99.90
21950;DHT22;11139;51.284;7.226;2024-01-11T06:48:02;-1.60;99.90
21950;DHT22;11139;51.284;7.226;2024-01-11T06:50:27;-1.60;99.90
21950;DHT22;11139;51.284;7.226;2024-01-11T06:52:54;-1.60;99.90
21950;DHT22;11139;51.284;7.226;2024-01-11T06:55:19;-1.60;99.90
21950;DHT22;11139;51.284;7.226;2024-01-11T06:57:48;-1.60;99.90
21950;DHT22;11139;51.284;7.226;2024-01-11T07:00:13;-1.60;99.90
21950;DHT22;11139;51.284;7.226;2024-01-11T07:02:39;-1.60;99.90
21950;DHT22;11139;51.284;7.226;2024-01-11T07:05:05;-1.60;99.90
21950;DHT22;11139;51.284;7.226;2024-01-11T07:07:31;-1.60;99.90
21950;DHT22;11139;51.284;7.226;2024-01-11T07:09:58;-1.60;99.90
21950;DHT22;11139;51.284;7.226;2024-01-11T07:12:23;-1.60;99.90
21950;DHT22;11139;51.284;7.226;2024-01-11T07:14:49;-1.70;99.90
21950;DHT22;11139;51.284;7.226;2024-01-11T07:17:14;-1.70;99.90
21950;DHT22;11139;51.284;7.226;2024-01-11T07:19:40;-1.70;99.90
21950;DHT22;11139;51.284;7.226;2024-01-11T07:22:05;-1.70;99.90
21950;DHT22;11139;51.284;7.226;2024-01-11T07:24:31;-1.70;99.90
21950;DHT22;11139;51.284;7.226;2024-01-11T07:27:03;-1.70;99.90
21950;DHT22;11139;51.284;7.226;2024-01-11T07:29:29;-1.70;99.90
21950;DHT22;11139;51.284;7.226;2024-01-11T07:31:54;-1.70;99.90
21950;DHT22;11139;51.284;7.226;2024-01-11T07:34:20;-1.70;99.90
21950;DHT22;11139;51.284;7.226;2024-01-11T07:36:45;-1.70;99.90
21950;DHT22;11139;51.284;7.226;2024-01-11T07:39:11;-1.70;99.90
21950;DHT22;11139;51.284;7.226;2024-01-11T07:41:36;-1.70;99.90
21950;DHT22;11139;51.284;7.226;2024-01-11T07:44:02;-1.70;99.90
21950;DHT22;11139;51.284;7.226;2024-01-11T07:46:28;-1.70;99.90
21950;DHT22;11139;51.284;7.226;2024-01-11T07:48:54;-1.70;99.90
21950;DHT22;11139;51.284;7.226;2024-01-11T07:51:19;-1.70;99.90
21950;DHT22;11139;51.284;7.226;2024-01-11T07:53:45;-1.70;99.90
21950;DHT22;11139;51.284;7.226;2024-01-11T07:56:11;-1.70;99.90
21950;DHT22;11139;51.284;7.226;2024-01-11T07:58:36;-1.70;99.90
21950;DHT22;11139;51.284;7.226;2024-01-11T08:01:03;-1.70;99.90
21950;DHT22;11139;51.284;7.226;2024-01-11T08:03:29;-1.70;99.90
21950;DHT22;11139;51.284;7.226;2024-01-11T08:05:55;-1.70;99.90
21950;DHT22;11139;51.284;7.226;2024-01-11T08:08:20;-1.70;99.90
21950;DHT22;11139;51.284;7.226;2024-01-11T08:10:47;-1.70;99.90
21950;DHT22;11139;51.284;7.226;2024-01-11T08:13:15;-1.70;99.90
21950;DHT22;11139;51.284;7.226;2024-01-11T08:15:41;-1.70;99.90
21950;DHT22;11139;51.284;7.226;2024-01-11T08:18:07;-1.80;99.90
21950;DHT22;11139;51.284;7.226;2024-01-11T08:20:32;-1.70;99.90
21950;DHT22;11139;51.284;7.226;2024-01-11T08:22:58;-1.70;99.90
21950;DHT22;11139;51.284;7.226;2024-01-11T08:25:31;-1.70;99.90
21950;DHT22;11139;51.284;7.226;2024-01-11T08:27:56;-1.60;99.90
21950;DHT22;11139;51.284;7.226;2024-01-11T08:30:22;-1.60;99.90
21950;DHT22;11139;51.284;7.226;2024-01-11T08:32:48;-1.60;99.90
21950;DHT22;11139;51.284;7.226;2024-01-11T08:35:14;-1.80;99.90
21950;DHT22;11139;51.284;7.226;2024-01-11T08:37:40;-1.80;99.90
21950;DHT22;11139;51.284;7.226;2024-01-11T08:40:05;-1.90;99.90
21950;DHT22;11139;51.284;7.226;2024-01-11T08:42:31;-1.90;99.90
21950;DHT22;11139;51.284;7.226;2024-01-11T08:44:57;-1.80;99.90
21950;DHT22;11139;51.284;7.226;2024-01-11T08:47:22;-1.80;99.90
21950;DHT22;11139;51.284;7.226;2024-01-11T08:49:48;-1.80;99.90
21950;DHT22;11139;51.284;7.226;2024-01-11T08:52:14;-1.80;99.90
21950;DHT22;11139;51.284;7.226;2024-01-11T08:54:40;-1.80;99.90
21950;DHT22;11139;51.284;7.226;2024-01-11T08:57:05;-1.80;99.90
21950;DHT22;11139;51.284;7.226;2024-01-11T08:59:31;-1.80;99.90
21950;DHT22;11139;51.284;7.226;2024-01-11T09:01:56;-1.80;99.90
21950;DHT22;11139;51.284;7.226;2024-01-11T09:04:22;-1.70;99.90
21950;DHT22;11139;51.284;7.226;2024-01-11T09:06:47;-1.80;99.90
21950;DHT22;11139;51.284;7.226;2024-01-11T09:09:13;-1.70;99.90
21950;DHT22;11139;51.284;7.226;2024-01-11T09:11:39;-1.70;99.90
21950;DHT22;11139;51.284;7.226;2024-01-11T09:14:05;-1.80;99.90
21950;DHT22;11139;51.284;7.226;2024-01-11T09:16:31;-1.80;99.90
21950;DHT22;11139;51.284;7.226;2024-01-11T09:18:57;-1.70;99.90
21950;DHT22;11139;51.284;7.226;2024-01-11T09:21:22;-1.80;99.90
21950;DHT22;11139;51.284;7.226;2024-01-11T09:23:48;-1.70;99.90
21950;DHT22;11139;51.284;7.226;2024-01-11T09:26:13;-1.70;99.90
21950;DHT22;11139;51.284;7.226;2024-01-11T09:28:39;-1.70;99.90
21950;DHT22;11139;51.284;7.226;2024-01-11T09:31:04;-1.70;99.90
21950;DHT22;11139;51.284;7.226;2024-01-11T09:33:30;-1.80;99.90
21950;DHT22;11139;51.284;7.226;2024-01-11T09:35:55;-1.70;99.90
21950;DHT22;11139;51.284;7.226;2024-01-11T09:38:24;-1.70;99.90
21950;DHT22;11139;51.284;7.226;2024-01-11T09:40:52;-1.80;99.90
21950;DHT22;11139;51.284;7.226;2024-01-11T09:43:23;-1.70;99.90
21950;DHT22;11139;51.284;7.226;2024-01-11T09:45:49;-1.70;99.90
21950;DHT22;11139;51.284;7.226;2024-01-11T09:48:16;-1.70;99.90
21950;DHT22;11139;51.284;7.226;2024-01-11T09:50:42;-1.80;99.90
21950;DHT22;11139;51.284;7.226;2024-01-11T09:53:07;-1.80;99.90
21950;DHT22;11139;51.284;7.226;2024-01-11T09:55:34;-1.80;99.90
21950;DHT22;11139;51.284;7.226;2024-01-11T09:58:01;-1.80;99.90
21950;DHT22;11139;51.284;7.226;2024-01-11T10:00:28;-1.80;99.90
21950;DHT22;11139;51.284;7.226;2024-01-11T10:02:53;-1.80;99.90
21950;DHT22;11139;51.284;7.226;2024-01-11T10:05:19;-1.80;99.90
21950;DHT22;11139;51.284;7.226;2024-01-11T10:07:45;-1.80;99.90
21950;DHT22;11139;51.284;7.226;2024-01-11T10:10:13;-1.80;99.90
21950;DHT22;11139;51.284;7.226;2024-01-11T10:12:41;-1.80;99.90
21950;DHT22;11139;51.284;7.226;2024-01-11T10:15:07;-1.80;99.90
21950;DHT22;11139;51.284;7.226;2024-01-11T10:17:45;-1.80;99.90
21950;DHT22;11139;51.284;7.226;2024-01-11T10:20:11;-1.80;99.90
21950;DHT22;11139;51.284;7.226;2024-01-11T10:22:41;-1.80;99.90
21950;DHT22;11139;51.284;7.226;2024-01-11T10:25:10;-1.80;99.90
21950;DHT22;11139;51.284;7.226;2024-01-11T10:27:37;-1.80;99.90
21950;DHT22;11139;51.284;7.226;2024-01-11T10:30:02;-1.80;99.90
21950;DHT22;11139;51.284;7.226;2024-01-11T10:32:28;-1.80;99.90
21950;DHT22;11139;51.284;7.226;2024-01-11T10:34:53;-1.70;99.90
21950;DHT22;11139;51.284;7.226;2024-01-11T10:37:20;-1.70;99.90
21950;DHT22;11139;51.284;7.226;2024-01-11T10:39:46;-1.70;99.90
21950;DHT22;11139;51.284;7.226;2024-01-11T10:42:14;-1.70;99.90
21950;DHT22;11139;51.284;7.226;2024-01-11T10:44:42;-1.70;99.90
21950;DHT22;11139;51.284;7.226;2024-01-11T10:47:10;-1.70;99.90
21950;DHT22;11139;51.284;7.226;2024-01-11T10:49:37;-1.70;99.90
21950;DHT22;11139;51.284;7.226;2024-01-11T10:52:04;-1.60;99.90
21950;DHT22;11139;51.284;7.226;2024-01-11T10:54:31;-1.60;99.90
21950;DHT22;11139;51.284;7.226;2024-01-11T10:57:00;-1.60;99.90
21950;DHT22;11139;51.284;7.226;2024-01-11T10:59:26;-1.60;99.90
21950;DHT22;11139;51.284;7.226;2024-01-11T11:01:52;-1.60;99.90
21950;DHT22;11139;51.284;7.226;2024-01-11T11:04:19;-1.60;99.90
21950;DHT22;11139;51.284;7.226;2024-01-11T11:06:46;-1.60;99.90
21950;DHT22;11139;51.284;7.226;2024-01-11T11:09:11;-1.60;99.90
21950;DHT22;11139;51.284;7.226;2024-01-11T11:11:39;-1.60;99.90
21950;DHT22;11139;51.284;7.226;2024-01-11T11:14:05;-1.50;99.90
21950;DHT22;11139;51.284;7.226;2024-01-11T11:16:30;-1.60;99.90
21950;DHT22;11139;51.284;7.226;2024-01-11T11:18:56;-1.50;99.90
21950;DHT22;11139;51.284;7.226;2024-01-11T11:21:22;-1.50;99.90
21950;DHT22;11139;51.284;7.226;2024-01-11T11:23:50;-1.50;99.90
21950;DHT22;11139;51.284;7.226;2024-01-11T11:26:16;-1.50;99.90
21950;DHT22;11139;51.284;7.226;2024-01-11T11:28:42;-1.50;99.90
21950;DHT22;11139;51.284;7.226;2024-01-11T11:31:08;-1.50;99.90
21950;DHT22;11139;51.284;7.226;2024-01-11T11:33:35;-1.50;99.90
21950;DHT22;11139;51.284;7.226;2024-01-11T11:36:01;-1.50;99.90
21950;DHT22;11139;51.284;7.226;2024-01-11T11:38:28;-1.50;99.90
21950;DHT22;11139;51.284;7.226;2024-01-11T11:40:54;-1.50;99.90
21950;DHT22;11139;51.284;7.226;2024-01-11T11:43:20;-1.50;99.90
21950;DHT22;11139;51.284;7.226;2024-01-11T11:45:46;-1.50;99.90
21950;DHT22;11139;51.284;7.226;2024-01-11T11:51:16;-1.40;99.90
21950;DHT22;11139;51.284;7.226;2024-01-11T11:53:42;-1.40;99.90
21950;DHT22;11139;51.284;7.226;2024-01-11T11:56:09;-1.40;99.90
21950;DHT22;11139;51.284;7.226;2024-01-11T11:58:35;-1.40;99.90
21950;DHT22;11139;51.284;7.226;2024-01-11T12:01:02;-1.40;99.90
21950;DHT22;11139;51.284;7.226;2024-01-11T12:06:00;-1.40;99.90
21950;DHT22;11139;51.284;7.226;2024-01-11T12:08:26;-1.40;99.90
21950;DHT22;11139;51.284;7.226;2024-01-11T12:10:52;-1.30;99.90
21950;DHT22;11139;51.284;7.226;2024-01-11T12:13:18;-1.30;99.90
21950;DHT22;11139;51.284;7.226;2024-01-11T12:15:43;-1.30;99.90
21950;DHT22;11139;51.284;7.226;2024-01-11T12:18:09;-1.30;99.90
21950;DHT22;11139;51.284;7.226;2024-01-11T12:20:34;-1.30;99.90
21950;DHT22;11139;51.284;7.226;2024-01-11T12:23:00;-1.30;99.90
21950;DHT22;11139;51.284;7.226;2024-01-11T12:25:27;-1.30;99.90
21950;DHT22;11139;51.284;7.226;2024-01-11T12:27:53;-1.30;99.90
21950;DHT22;11139;51.284;7.226;2024-01-11T12:30:19;-1.30;99.90
21950;DHT22;11139;51.284;7.226;2024-01-11T12:32:47;-1.20;99.90
21950;DHT22;11139;51.284;7.226;2024-01-11T12:35:12;-1.20;99.90
21950;DHT22;11139;51.284;7.226;2024-01-11T12:37:38;-1.20;99.90
21950;DHT22;11139;51.284;7.226;2024-01-11T12:40:04;-1.20;99.90
21950;DHT22;11139;51.284;7.226;2024-01-11T12:42:34;-1.20;99.90
21950;DHT22;11139;51.284;7.226;2024-01-11T12:44:59;-1.20;99.90
21950;DHT22;11139;51.284;7.226;2024-01-11T12:47:25;-1.10;99.90
21950;DHT22;11139;51.284;7.226;2024-01-11T12:49:54;-1.10;99.90
21950;DHT22;11139;51.284;7.226;2024-01-11T12:52:20;-1.10;99.90
21950;DHT22;11139;51.284;7.226;2024-01-11T12:54:46;-1.10;99.90
21950;DHT22;11139;51.284;7.226;2024-01-11T12:57:20;-1.10;99.90
21950;DHT22;11139;51.284;7.226;2024-01-11T12:59:48;-1.10;99.90
21950;DHT22;11139;51.284;7.226;2024-01-11T13:02:15;-1.10;99.90
21950;DHT22;11139;51.284;7.226;2024-01-11T13:04:43;-1.10;99.90
21950;DHT22;11139;51.284;7.226;2024-01-11T13:07:11;-1.10;99.90
21950;DHT22;11139;51.284;7.226;2024-01-11T13:09:38;-1.10;99.90
21950;DHT22;11139;51.284;7.226;2024-01-11T13:12:03;-1.10;99.90
21950;DHT22;11139;51.284;7.226;2024-01-11T13:14:29;-1.10;99.90
21950;DHT22;11139;51.284;7.226;2024-01-11T13:16:54;-1.10;99.90
21950;DHT22;11139;51.284;7.226;2024-01-11T13:19:20;-1.10;99.90
21950;DHT22;11139;51.284;7.226;2024-01-11T13:21:45;-1.10;99.90
21950;DHT22;11139;51.284;7.226;2024-01-11T13:24:11;-1.00;99.90
21950;DHT22;11139;51.284;7.226;2024-01-11T13:26:38;-1.10;99.90
21950;DHT22;11139;51.284;7.226;2024-01-11T13:29:04;-1.10;99.90
21950;DHT22;11139;51.284;7.226;2024-01-11T13:31:30;-0.70;99.90
21950;DHT22;11139;51.284;7.226;2024-01-11T13:33:56;0.10;99.90
21950;DHT22;11139;51.284;7.226;2024-01-11T13:36:25;0.40;99.90
21950;DHT22;11139;51.284;7.226;2024-01-11T13:38:50;0.50;99.90
21950;DHT22;11139;51.284;7.226;2024-01-11T13:41:16;0.30;99.90
21950;DHT22;11139;51.284;7.226;2024-01-11T13:43:45;0.30;99.90
21950;DHT22;11139;51.284;7.226;2024-01-11T13:46:11;0.20;99.90
21950;DHT22;11139;51.284;7.226;2024-01-11T13:48:38;0.10;99.90
21950;DHT22;11139;51.284;7.226;2024-01-11T13:51:03;0.00;99.90
21950;DHT22;11139;51.284;7.226;2024-01-11T13:53:29;0.10;99.90
21950;DHT22;11139;51.284;7.226;2024-01-11T13:55:54;0.20;99.90
21950;DHT22;11139;51.284;7.226;2024-01-11T13:58:21;0.10;99.90
21950;DHT22;11139;51.284;7.226;2024-01-11T14:00:46;0.00;99.90
21950;DHT22;11139;51.284;7.226;2024-01-11T14:03:12;0.00;99.90
21950;DHT22;11139;51.284;7.226;2024-01-11T14:05:37;-0.10;99.90
21950;DHT22;11139;51.284;7.226;2024-01-11T14:08:03;-0.10;99.90
21950;DHT22;11139;51.284;7.226;2024-01-11T14:10:32;-0.20;99.90
21950;DHT22;11139;51.284;7.226;2024-01-11T14:12:59;-0.20;99.90
21950;DHT22;11139;51.284;7.226;2024-01-11T14:15:25;-0.20;99.90
21950;DHT22;11139;51.284;7.226;2024-01-11T14:17:51;-0.20;99.90
21950;DHT22;11139;51.284;7.226;2024-01-11T14:20:16;-0.20;99.90
21950;DHT22;11139;51.284;7.226;2024-01-11T14:22:42;-0.20;99.90
21950;DHT22;11139;51.284;7.226;2024-01-11T14:25:12;-0.20;99.90
21950;DHT22;11139;51.284;7.226;2024-01-11T14:27:38;-0.20;99.90
21950;DHT22;11139;51.284;7.226;2024-01-11T14:30:04;-0.20;99.90
21950;DHT22;11139;51.284;7.226;2024-01-11T14:32:31;-0.20;99.90
21950;DHT22;11139;51.284;7.226;2024-01-11T14:34:56;-0.20;99.90
21950;DHT22;11139;51.284;7.226;2024-01-11T14:37:22;-0.20;99.90
21950;DHT22;11139;51.284;7.226;2024-01-11T14:39:47;-0.20;99.90
21950;DHT22;11139;51.284;7.226;2024-01-11T14:42:13;-0.20;99.90
21950;DHT22;11139;51.284;7.226;2024-01-11T14:44:38;-0.20;99.90
21950;DHT22;11139;51.284;7.226;2024-01-11T14:47:04;-0.20;99.90
21950;DHT22;11139;51.284;7.226;2024-01-11T14:49:29;-0.20;99.90
21950;DHT22;11139;51.284;7.226;2024-01-11T14:51:55;-0.20;99.90
21950;DHT22;11139;51.284;7.226;2024-01-11T14:54:21;-0.10;99.90
21950;DHT22;11139;51.284;7.226;2024-01-11T14:56:47;0.00;99.90
21950;DHT22;11139;51.284;7.226;2024-01-11T14:59:15;-0.10;99.90
21950;DHT22;11139;51.284;7.226;2024-01-11T15:01:41;-0.10;99.90
21950;DHT22;11139;51.284;7.226;2024-01-11T15:04:07;-0.10;99.90
21950;DHT22;11139;51.284;7.226;2024-01-11T15:06:32;-0.20;99.90
21950;DHT22;11139;51.284;7.226;2024-01-11T15:08:58;-0.20;99.90
21950;DHT22;11139;51.284;7.226;2024-01-11T15:11:23;-0.20;99.90
21950;DHT22;11139;51.284;7.226;2024-01-11T15:13:49;-0.20;99.90
21950;DHT22;11139;51.284;7.226;2024-01-11T15:16:15;-0.20;99.90
21950;DHT22;11139;51.284;7.226;2024-01-11T15:18:40;-0.20;99.90
21950;DHT22;11139;51.284;7.226;2024-01-11T15:21:06;-0.20;99.90
21950;DHT22;11139;51.284;7.226;2024-01-11T15:23:32;-0.20;99.90
21950;DHT22;11139;51.284;7.226;2024-01-11T15:25:57;-0.20;99.90
21950;DHT22;11139;51.284;7.226;2024-01-11T15:28:23;-0.20;99.90
21950;DHT22;11139;51.284;7.226;2024-01-11T15:30:48;-0.20;99.90